Bauang Weathercam more information Bauang Weathercam


Rain radar more information rain snow radar


Visit other webcamsites:

Youtube



Nearby METAR Reports

   
RPLC - Angeles/Pampanga, Philippines
Distance from station: S 165 km
Updated: 04-10-2022 04:00
Mostly Cloudy  
Mostly Cloudy  
   Wind: WSW 2.1 m/s
Wind: WSW 2.1 m/s
Temperature: 26°C
Dew Point: 22°C
Humidity: 79%
Barometer: 1011 hPa
Clouds: Mostly Cloudy
Visibility: 8 km
Cloud details: Partly Cloudy 609.6 m,
Mostly Cloudy 9144 m
RPLC 032000Z 24004KT 8000 SCT020 BKN300 26/22 Q1011 RERA RMK A2985
RPLI - Laoag Intl(Ph-Ar, Philippines
Distance from station: N 172 km
Updated: 04-10-2022 02:00
NOT Current
Few Clouds  
Few Clouds  
   Wind: South 1 m/s
Wind: South 1 m/s
Temperature: 25°C
Dew Point: 24°C
Humidity: 94%
Barometer: 1009 hPa
Clouds: Few Clouds
Visibility: More than 10 km
Cloud details: Few Clouds 548.6 m
RPLI 031800Z 18002KT 9999 FEW018 25/24 Q1009 NOSIG RMK A2980
RPLB - Olongapo/Subic, Philippines
Distance from station: S 203 km
Updated: 04-10-2022 04:00
Partly Cloudy  
Partly Cloudy  
   Wind: ENE 2.6 m/s
Wind: ENE 2.6 m/s
Temperature: 25°C
Dew Point: 23°C
Humidity: 89%
Barometer: 1011 hPa
Clouds: Partly Cloudy
Visibility: More than 10 km
Cloud details: Few Clouds 609.6 m,
Partly Cloudy 9144 m
RPLB 032000Z 07005KT 9999 FEW020 SCT300 25/23 Q1011 NOSIG RMK A2985
RPLL - Ninoy Aquino Int, Philippines
Distance from station: SSE 246 km
Updated: 04-10-2022 04:00
Mostly Cloudy  
Mostly Cloudy  
   Wind: Calm
Wind: Calm
Temperature: 27°C
Heat Index: 30°C
Dew Point: 24°C
Humidity: 84%
Barometer: 1010 hPa
Clouds: Mostly Cloudy
Visibility: More than 10 km
Cloud details: Few Clouds 762 m,
Mostly Cloudy 3048 m
RPLL 032000Z 00000KT 9999 FEW025 BKN100 27/24 Q1010 NOSIG RMK A2983
RPMR - Romblon/Tablas I, Philippines
Distance from station: SSE 498 km
Updated: 03-10-2022 17:00
NOT Current
Mostly Cloudy  
Mostly Cloudy  
   Wind: SSW 4.1 m/s
Wind: SSW 4.1 m/s
Temperature: 30°C
Heat Index: 33°C
Dew Point: 22°C
Humidity: 62%
Barometer: 1008 hPa
Clouds: Mostly Cloudy
Visibility: More than 10 km
Cloud details: Few Clouds 548.6 m,
Mostly Cloudy 2438.4 m
RPMR 030900Z 21008KT 9999 FEW018 BKN080 30/22 Q1008 RMK A2977
RPVP - Puerto Princesa, Philippines
Distance from station: SSW 778 km
Updated: 04-10-2022 02:00
NOT Current
Thunderstorm, Overcast  
Thunderstorm, Overcast  
   Wind: West 2.1 m/s
Wind: West 2.1 m/s
Temperature: 25°C
Dew Point: 24°C
Humidity: 94%
Barometer: 1010 hPa
Clouds: Overcast
Visibility: More than 10 km
Cloud details: Few Clouds 518.2 m,
Partly Cloudy 579.1 m,
Overcast 2438.4 m
RPVP 031800Z 27004KT 9999 TS FEW017CB SCT019 OVC080 25/24 Q1010 RESHRA RMK A2983 CB W-NW-N W/ OCNL LTG
RPVM - Mactan-Cebu, Philippines
Distance from station: SSE 800 km
Updated: 04-10-2022 04:00
Few Clouds  
Few Clouds  
   Wind: NNW 1 m/s
Wind: NNW 1 m/s
Temperature: 25°C
Dew Point: 23°C
Humidity: 89%
Barometer: 1010 hPa
Clouds: Few Clouds
Visibility: More than 10 km
Cloud details: Few Clouds 609.6 m
RPVM 032000Z 34002KT 9999 FEW020 25/23 Q1010 RMK A2983
RPMZ - Zamboanga (civ/A, Philippines
Distance from station: S 1090 km
Updated: 04-10-2022 02:00
NOT Current
Partly Cloudy  
Partly Cloudy  
   Wind: varies 1 m/s
Wind: varies 1 m/s
Temperature: 25°C
Dew Point: 24°C
Humidity: 94%
Barometer: 1009 hPa
Clouds: Partly Cloudy
Visibility: More than 10 km
Cloud details: Few Clouds 518.2 m,
Partly Cloudy 2743.2 m
RPMZ 031800Z VRB02KT 9999 FEW017 SCT090 25/24 Q1009 RMK A2980
RPMD - Davao/Francisco, Philippines
Distance from station: SSE 1198 km
Updated: 04-10-2022 04:00
Few Clouds  
Few Clouds  
   Wind: NNW 1.5 m/s
Wind: NNW 1.5 m/s
Temperature: 25°C
Dew Point: 24°C
Humidity: 94%
Barometer: 1009 hPa
Clouds: Few Clouds
Visibility: More than 10 km
Cloud details: Few Clouds 487.7 m
RPMD 032000Z 33003KT 300V030 9999 FEW016 25/24 Q1009 RMK A2980

Script developed by  Saratoga-weather.org Adapted for the template by  Weerstation Leuven

You find our weather info also at:

Ambient Weather

WeatherCloud

Philippine Atmospheric, Geophysical and Astronomical Services Administration